sensor_id;sensor_type;location;lat;lon;timestamp;P1;P2;P0
49644;PMS5003;36494;50.730;-1.932;2023-06-10T00:00:11;27;26;
49644;PMS5003;36494;50.730;-1.932;2023-06-10T00:02:36;30;29;
49644;PMS5003;36494;50.730;-1.932;2023-06-10T00:05:01;27;26;
49644;PMS5003;36494;50.730;-1.932;2023-06-10T00:07:26;33;31;
49644;PMS5003;36494;50.730;-1.932;2023-06-10T00:09:51;29;28;
49644;PMS5003;36494;50.730;-1.932;2023-06-10T00:12:17;30;29;
49644;PMS5003;36494;50.730;-1.932;2023-06-10T00:14:42;24;24;
49644;PMS5003;36494;50.730;-1.932;2023-06-10T00:17:07;33;31;
49644;PMS5003;36494;50.730;-1.932;2023-06-10T00:19:33;34;33;
49644;PMS5003;36494;50.730;-1.932;2023-06-10T00:21:58;30;29;
49644;PMS5003;36494;50.730;-1.932;2023-06-10T00:24:23;32;32;
49644;PMS5003;36494;50.730;-1.932;2023-06-10T00:26:49;31;29;
49644;PMS5003;36494;50.730;-1.932;2023-06-10T00:29:14;28;28;
49644;PMS5003;36494;50.730;-1.932;2023-06-10T00:31:39;27;26;
49644;PMS5003;36494;50.730;-1.932;2023-06-10T00:34:05;26;26;
49644;PMS5003;36494;50.730;-1.932;2023-06-10T00:36:30;30;29;
49644;PMS5003;36494;50.730;-1.932;2023-06-10T00:38:55;33;32;
49644;PMS5003;36494;50.730;-1.932;2023-06-10T00:41:20;27;27;
49644;PMS5003;36494;50.730;-1.932;2023-06-10T00:43:46;31;28;
49644;PMS5003;36494;50.730;-1.932;2023-06-10T00:46:11;26;26;
49644;PMS5003;36494;50.730;-1.932;2023-06-10T00:48:37;28;25;
49644;PMS5003;36494;50.730;-1.932;2023-06-10T00:51:03;28;28;
49644;PMS5003;36494;50.730;-1.932;2023-06-10T00:53:28;27;26;
49644;PMS5003;36494;50.730;-1.932;2023-06-10T00:55:53;32;30;
49644;PMS5003;36494;50.730;-1.932;2023-06-10T00:58:19;26;26;
49644;PMS5003;36494;50.730;-1.932;2023-06-10T01:00:44;33;30;
49644;PMS5003;36494;50.730;-1.932;2023-06-10T01:03:09;28;28;
49644;PMS5003;36494;50.730;-1.932;2023-06-10T01:05:35;30;29;
49644;PMS5003;36494;50.730;-1.932;2023-06-10T01:08:01;34;30;
49644;PMS5003;36494;50.730;-1.932;2023-06-10T01:10:28;36;34;
49644;PMS5003;36494;50.730;-1.932;2023-06-10T01:12:55;30;29;
49644;PMS5003;36494;50.730;-1.932;2023-06-10T01:15:17;30;30;
49644;PMS5003;36494;50.730;-1.932;2023-06-10T01:20:09;31;28;
49644;PMS5003;36494;50.730;-1.932;2023-06-10T01:22:34;28;28;
49644;PMS5003;36494;50.730;-1.932;2023-06-10T01:25:00;29;29;
49644;PMS5003;36494;50.730;-1.932;2023-06-10T01:27:26;28;28;
49644;PMS5003;36494;50.730;-1.932;2023-06-10T01:29:53;28;28;
49644;PMS5003;36494;50.730;-1.932;2023-06-10T01:32:17;31;30;
49644;PMS5003;36494;50.730;-1.932;2023-06-10T01:34:41;33;31;
49644;PMS5003;36494;50.730;-1.932;2023-06-10T01:37:07;32;31;
49644;PMS5003;36494;50.730;-1.932;2023-06-10T01:39:33;31;31;
49644;PMS5003;36494;50.730;-1.932;2023-06-10T01:41:58;34;32;
49644;PMS5003;36494;50.730;-1.932;2023-06-10T01:44:23;28;26;
49644;PMS5003;36494;50.730;-1.932;2023-06-10T01:46:49;36;34;
49644;PMS5003;36494;50.730;-1.932;2023-06-10T01:49:14;28;25;
49644;PMS5003;36494;50.730;-1.932;2023-06-10T01:51:40;30;30;
49644;PMS5003;36494;50.730;-1.932;2023-06-10T01:54:05;32;30;
49644;PMS5003;36494;50.730;-1.932;2023-06-10T01:56:30;28;27;
49644;PMS5003;36494;50.730;-1.932;2023-06-10T01:58:56;30;29;
49644;PMS5003;36494;50.730;-1.932;2023-06-10T02:01:21;32;31;
49644;PMS5003;36494;50.730;-1.932;2023-06-10T02:03:46;30;30;
49644;PMS5003;36494;50.730;-1.932;2023-06-10T02:06:12;32;31;
49644;PMS5003;36494;50.730;-1.932;2023-06-10T02:08:37;26;26;
49644;PMS5003;36494;50.730;-1.932;2023-06-10T02:11:02;27;26;
49644;PMS5003;36494;50.730;-1.932;2023-06-10T02:13:27;28;28;
49644;PMS5003;36494;50.730;-1.932;2023-06-10T02:15:53;32;31;
49644;PMS5003;36494;50.730;-1.932;2023-06-10T02:18:18;31;30;
49644;PMS5003;36494;50.730;-1.932;2023-06-10T02:20:43;31;29;
49644;PMS5003;36494;50.730;-1.932;2023-06-10T02:23:08;29;28;
49644;PMS5003;36494;50.730;-1.932;2023-06-10T02:25:34;33;30;
49644;PMS5003;36494;50.730;-1.932;2023-06-10T02:27:59;29;28;
49644;PMS5003;36494;50.730;-1.932;2023-06-10T02:30:24;31;29;
49644;PMS5003;36494;50.730;-1.932;2023-06-10T02:32:49;29;27;
49644;PMS5003;36494;50.730;-1.932;2023-06-10T02:35:14;32;30;
49644;PMS5003;36494;50.730;-1.932;2023-06-10T02:37:39;28;27;
49644;PMS5003;36494;50.730;-1.932;2023-06-10T02:40:05;30;29;
49644;PMS5003;36494;50.730;-1.932;2023-06-10T02:42:31;30;28;
49644;PMS5003;36494;50.730;-1.932;2023-06-10T02:44:56;29;28;
49644;PMS5003;36494;50.730;-1.932;2023-06-10T02:47:21;30;30;
49644;PMS5003;36494;50.730;-1.932;2023-06-10T02:49:47;32;31;
49644;PMS5003;36494;50.730;-1.932;2023-06-10T02:52:12;35;32;
49644;PMS5003;36494;50.730;-1.932;2023-06-10T02:54:38;28;27;
49644;PMS5003;36494;50.730;-1.932;2023-06-10T02:57:03;28;26;
49644;PMS5003;36494;50.730;-1.932;2023-06-10T02:59:28;35;33;
49644;PMS5003;36494;50.730;-1.932;2023-06-10T03:01:54;33;32;
49644;PMS5003;36494;50.730;-1.932;2023-06-10T03:04:19;29;28;
49644;PMS5003;36494;50.730;-1.932;2023-06-10T03:06:45;27;27;
49644;PMS5003;36494;50.730;-1.932;2023-06-10T03:09:10;28;26;
49644;PMS5003;36494;50.730;-1.932;2023-06-10T03:11:35;33;30;
49644;PMS5003;36494;50.730;-1.932;2023-06-10T03:14:01;32;30;
49644;PMS5003;36494;50.730;-1.932;2023-06-10T03:16:26;26;26;
49644;PMS5003;36494;50.730;-1.932;2023-06-10T03:18:52;34;30;
49644;PMS5003;36494;50.730;-1.932;2023-06-10T03:21:18;29;29;
49644;PMS5003;36494;50.730;-1.932;2023-06-10T03:23:43;29;28;
49644;PMS5003;36494;50.730;-1.932;2023-06-10T03:26:08;33;31;
49644;PMS5003;36494;50.730;-1.932;2023-06-10T03:28:34;35;33;
49644;PMS5003;36494;50.730;-1.932;2023-06-10T03:30:59;33;32;
49644;PMS5003;36494;50.730;-1.932;2023-06-10T03:33:24;29;28;
49644;PMS5003;36494;50.730;-1.932;2023-06-10T03:35:49;30;29;
49644;PMS5003;36494;50.730;-1.932;2023-06-10T03:38:15;29;29;
49644;PMS5003;36494;50.730;-1.932;2023-06-10T03:40:41;25;25;
49644;PMS5003;36494;50.730;-1.932;2023-06-10T03:43:06;30;28;
49644;PMS5003;36494;50.730;-1.932;2023-06-10T03:45:31;26;25;
49644;PMS5003;36494;50.730;-1.932;2023-06-10T03:47:56;31;30;
49644;PMS5003;36494;50.730;-1.932;2023-06-10T03:50:22;30;29;
49644;PMS5003;36494;50.730;-1.932;2023-06-10T03:52:47;25;25;
49644;PMS5003;36494;50.730;-1.932;2023-06-10T03:55:12;31;30;
49644;PMS5003;36494;50.730;-1.932;2023-06-10T03:57:38;30;30;
49644;PMS5003;36494;50.730;-1.932;2023-06-10T04:00:04;31;30;
49644;PMS5003;36494;50.730;-1.932;2023-06-10T04:02:29;30;29;
49644;PMS5003;36494;50.730;-1.932;2023-06-10T04:04:54;29;28;
49644;PMS5003;36494;50.730;-1.932;2023-06-10T04:07:20;30;26;
49644;PMS5003;36494;50.730;-1.932;2023-06-10T04:09:45;26;26;
49644;PMS5003;36494;50.730;-1.932;2023-06-10T04:12:10;29;28;
49644;PMS5003;36494;50.730;-1.932;2023-06-10T04:14:36;25;25;
49644;PMS5003;36494;50.730;-1.932;2023-06-10T04:17:01;28;27;
49644;PMS5003;36494;50.730;-1.932;2023-06-10T04:19:26;27;26;
49644;PMS5003;36494;50.730;-1.932;2023-06-10T04:21:52;26;25;
49644;PMS5003;36494;50.730;-1.932;2023-06-10T04:24:18;29;28;
49644;PMS5003;36494;50.730;-1.932;2023-06-10T04:26:43;27;25;
49644;PMS5003;36494;50.730;-1.932;2023-06-10T04:29:09;24;23;
49644;PMS5003;36494;50.730;-1.932;2023-06-10T04:31:34;24;23;
49644;PMS5003;36494;50.730;-1.932;2023-06-10T04:34:00;29;26;
49644;PMS5003;36494;50.730;-1.932;2023-06-10T04:36:25;28;27;
49644;PMS5003;36494;50.730;-1.932;2023-06-10T04:38:50;30;29;
49644;PMS5003;36494;50.730;-1.932;2023-06-10T04:41:15;27;25;
49644;PMS5003;36494;50.730;-1.932;2023-06-10T04:43:40;21;21;
49644;PMS5003;36494;50.730;-1.932;2023-06-10T04:46:06;23;23;
49644;PMS5003;36494;50.730;-1.932;2023-06-10T04:48:32;26;24;
49644;PMS5003;36494;50.730;-1.932;2023-06-10T04:50:57;26;24;
49644;PMS5003;36494;50.730;-1.932;2023-06-10T04:53:21;24;23;
49644;PMS5003;36494;50.730;-1.932;2023-06-10T04:55:47;22;21;
49644;PMS5003;36494;50.730;-1.932;2023-06-10T04:58:13;29;27;
49644;PMS5003;36494;50.730;-1.932;2023-06-10T05:00:38;25;24;
49644;PMS5003;36494;50.730;-1.932;2023-06-10T05:03:03;28;27;
49644;PMS5003;36494;50.730;-1.932;2023-06-10T05:05:29;24;23;
49644;PMS5003;36494;50.730;-1.932;2023-06-10T05:07:54;26;25;
49644;PMS5003;36494;50.730;-1.932;2023-06-10T05:10:19;27;25;
49644;PMS5003;36494;50.730;-1.932;2023-06-10T05:12:45;30;29;
49644;PMS5003;36494;50.730;-1.932;2023-06-10T05:15:10;29;27;
49644;PMS5003;36494;50.730;-1.932;2023-06-10T05:17:35;26;25;
49644;PMS5003;36494;50.730;-1.932;2023-06-10T05:20:00;26;25;
49644;PMS5003;36494;50.730;-1.932;2023-06-10T05:22:25;29;27;
49644;PMS5003;36494;50.730;-1.932;2023-06-10T05:24:51;29;27;
49644;PMS5003;36494;50.730;-1.932;2023-06-10T05:27:17;21;20;
49644;PMS5003;36494;50.730;-1.932;2023-06-10T05:29:42;26;24;
49644;PMS5003;36494;50.730;-1.932;2023-06-10T05:32:08;29;26;
49644;PMS5003;36494;50.730;-1.932;2023-06-10T05:34:33;23;23;
49644;PMS5003;36494;50.730;-1.932;2023-06-10T05:36:59;25;24;
49644;PMS5003;36494;50.730;-1.932;2023-06-10T05:39:24;27;24;
49644;PMS5003;36494;50.730;-1.932;2023-06-10T05:41:50;24;24;
49644;PMS5003;36494;50.730;-1.932;2023-06-10T05:44:15;21;21;
49644;PMS5003;36494;50.730;-1.932;2023-06-10T05:46:40;22;22;
49644;PMS5003;36494;50.730;-1.932;2023-06-10T05:49:06;24;24;
49644;PMS5003;36494;50.730;-1.932;2023-06-10T05:51:31;25;24;
49644;PMS5003;36494;50.730;-1.932;2023-06-10T05:53:57;22;20;
49644;PMS5003;36494;50.730;-1.932;2023-06-10T05:56:22;23;22;
49644;PMS5003;36494;50.730;-1.932;2023-06-10T05:58:47;19;19;
49644;PMS5003;36494;50.730;-1.932;2023-06-10T06:01:13;21;21;
49644;PMS5003;36494;50.730;-1.932;2023-06-10T06:03:38;22;22;
49644;PMS5003;36494;50.730;-1.932;2023-06-10T06:06:04;28;27;
49644;PMS5003;36494;50.730;-1.932;2023-06-10T06:08:29;22;22;
49644;PMS5003;36494;50.730;-1.932;2023-06-10T06:10:54;24;23;
49644;PMS5003;36494;50.730;-1.932;2023-06-10T06:13:20;22;19;
49644;PMS5003;36494;50.730;-1.932;2023-06-10T06:15:45;21;21;
49644;PMS5003;36494;50.730;-1.932;2023-06-10T06:18:10;27;26;
49644;PMS5003;36494;50.730;-1.932;2023-06-10T06:20:35;22;21;
49644;PMS5003;36494;50.730;-1.932;2023-06-10T06:23:00;23;21;
49644;PMS5003;36494;50.730;-1.932;2023-06-10T06:25:26;23;22;
49644;PMS5003;36494;50.730;-1.932;2023-06-10T06:27:51;22;21;
49644;PMS5003;36494;50.730;-1.932;2023-06-10T06:30:16;19;18;
49644;PMS5003;36494;50.730;-1.932;2023-06-10T06:32:42;22;21;
49644;PMS5003;36494;50.730;-1.932;2023-06-10T06:35:08;22;22;
49644;PMS5003;36494;50.730;-1.932;2023-06-10T06:37:33;23;23;
49644;PMS5003;36494;50.730;-1.932;2023-06-10T06:39:58;24;23;
49644;PMS5003;36494;50.730;-1.932;2023-06-10T06:42:23;18;17;
49644;PMS5003;36494;50.730;-1.932;2023-06-10T06:44:48;23;22;
49644;PMS5003;36494;50.730;-1.932;2023-06-10T06:47:14;21;20;
49644;PMS5003;36494;50.730;-1.932;2023-06-10T06:49:39;26;26;
49644;PMS5003;36494;50.730;-1.932;2023-06-10T06:52:05;22;21;
49644;PMS5003;36494;50.730;-1.932;2023-06-10T06:54:30;21;21;
49644;PMS5003;36494;50.730;-1.932;2023-06-10T06:56:55;27;26;
49644;PMS5003;36494;50.730;-1.932;2023-06-10T06:59:21;21;19;
49644;PMS5003;36494;50.730;-1.932;2023-06-10T07:01:46;23;22;
49644;PMS5003;36494;50.730;-1.932;2023-06-10T07:04:11;23;22;
49644;PMS5003;36494;50.730;-1.932;2023-06-10T07:06:36;21;20;
49644;PMS5003;36494;50.730;-1.932;2023-06-10T07:09:02;24;22;
49644;PMS5003;36494;50.730;-1.932;2023-06-10T07:11:28;23;23;
49644;PMS5003;36494;50.730;-1.932;2023-06-10T07:13:54;27;26;
49644;PMS5003;36494;50.730;-1.932;2023-06-10T07:16:19;21;20;
49644;PMS5003;36494;50.730;-1.932;2023-06-10T07:18:44;22;21;
49644;PMS5003;36494;50.730;-1.932;2023-06-10T07:21:10;29;25;
49644;PMS5003;36494;50.730;-1.932;2023-06-10T07:23:35;25;23;
49644;PMS5003;36494;50.730;-1.932;2023-06-10T07:26:00;23;21;
49644;PMS5003;36494;50.730;-1.932;2023-06-10T07:28:25;23;22;
49644;PMS5003;36494;50.730;-1.932;2023-06-10T07:30:51;23;22;
49644;PMS5003;36494;50.730;-1.932;2023-06-10T07:33:16;22;20;
49644;PMS5003;36494;50.730;-1.932;2023-06-10T07:35:41;23;22;
49644;PMS5003;36494;50.730;-1.932;2023-06-10T07:38:07;21;20;
49644;PMS5003;36494;50.730;-1.932;2023-06-10T07:40:32;26;24;
49644;PMS5003;36494;50.730;-1.932;2023-06-10T07:42:57;23;22;
49644;PMS5003;36494;50.730;-1.932;2023-06-10T07:45:23;21;20;
49644;PMS5003;36494;50.730;-1.932;2023-06-10T07:47:48;23;22;
49644;PMS5003;36494;50.730;-1.932;2023-06-10T07:50:13;22;22;
49644;PMS5003;36494;50.730;-1.932;2023-06-10T07:52:39;21;21;
49644;PMS5003;36494;50.730;-1.932;2023-06-10T07:55:04;22;22;
49644;PMS5003;36494;50.730;-1.932;2023-06-10T07:57:29;27;25;
49644;PMS5003;36494;50.730;-1.932;2023-06-10T07:59:55;21;21;
49644;PMS5003;36494;50.730;-1.932;2023-06-10T08:02:20;22;21;
49644;PMS5003;36494;50.730;-1.932;2023-06-10T08:04:46;22;22;
49644;PMS5003;36494;50.730;-1.932;2023-06-10T08:07:12;23;23;
49644;PMS5003;36494;50.730;-1.932;2023-06-10T08:09:37;23;23;
49644;PMS5003;36494;50.730;-1.932;2023-06-10T08:12:03;21;20;
49644;PMS5003;36494;50.730;-1.932;2023-06-10T08:14:29;23;23;
49644;PMS5003;36494;50.730;-1.932;2023-06-10T08:16:54;20;20;
49644;PMS5003;36494;50.730;-1.932;2023-06-10T08:19:20;22;21;
49644;PMS5003;36494;50.730;-1.932;2023-06-10T08:21:45;22;21;
49644;PMS5003;36494;50.730;-1.932;2023-06-10T08:24:10;24;24;
49644;PMS5003;36494;50.730;-1.932;2023-06-10T08:26:35;23;22;
49644;PMS5003;36494;50.730;-1.932;2023-06-10T08:29:00;21;21;
49644;PMS5003;36494;50.730;-1.932;2023-06-10T08:31:25;23;23;
49644;PMS5003;36494;50.730;-1.932;2023-06-10T08:33:50;21;21;
49644;PMS5003;36494;50.730;-1.932;2023-06-10T08:36:16;18;18;
49644;PMS5003;36494;50.730;-1.932;2023-06-10T08:38:41;23;22;
49644;PMS5003;36494;50.730;-1.932;2023-06-10T08:41:06;20;19;
49644;PMS5003;36494;50.730;-1.932;2023-06-10T08:43:32;20;19;
49644;PMS5003;36494;50.730;-1.932;2023-06-10T08:45:59;23;23;
49644;PMS5003;36494;50.730;-1.932;2023-06-10T08:48:23;20;20;
49644;PMS5003;36494;50.730;-1.932;2023-06-10T08:50:48;19;19;
49644;PMS5003;36494;50.730;-1.932;2023-06-10T08:53:14;22;22;
49644;PMS5003;36494;50.730;-1.932;2023-06-10T08:55:41;21;21;
49644;PMS5003;36494;50.730;-1.932;2023-06-10T08:58:04;20;20;
49644;PMS5003;36494;50.730;-1.932;2023-06-10T09:00:30;20;19;
49644;PMS5003;36494;50.730;-1.932;2023-06-10T09:02:55;24;24;
49644;PMS5003;36494;50.730;-1.932;2023-06-10T09:05:20;23;22;
49644;PMS5003;36494;50.730;-1.932;2023-06-10T09:07:46;25;25;
49644;PMS5003;36494;50.730;-1.932;2023-06-10T09:10:11;23;22;
49644;PMS5003;36494;50.730;-1.932;2023-06-10T09:12:37;25;23;
49644;PMS5003;36494;50.730;-1.932;2023-06-10T09:15:03;21;21;
49644;PMS5003;36494;50.730;-1.932;2023-06-10T09:17:28;21;19;
49644;PMS5003;36494;50.730;-1.932;2023-06-10T09:19:53;23;21;
49644;PMS5003;36494;50.730;-1.932;2023-06-10T09:22:19;22;21;
49644;PMS5003;36494;50.730;-1.932;2023-06-10T09:24:44;21;20;
49644;PMS5003;36494;50.730;-1.932;2023-06-10T09:27:10;20;19;
49644;PMS5003;36494;50.730;-1.932;2023-06-10T09:32:01;23;22;
49644;PMS5003;36494;50.730;-1.932;2023-06-10T09:34:26;21;21;
49644;PMS5003;36494;50.730;-1.932;2023-06-10T09:36:52;21;20;
49644;PMS5003;36494;50.730;-1.932;2023-06-10T09:39:18;25;25;
49644;PMS5003;36494;50.730;-1.932;2023-06-10T09:41:43;20;20;
49644;PMS5003;36494;50.730;-1.932;2023-06-10T09:44:11;25;24;
49644;PMS5003;36494;50.730;-1.932;2023-06-10T09:46:34;22;21;
49644;PMS5003;36494;50.730;-1.932;2023-06-10T09:49:00;26;25;
49644;PMS5003;36494;50.730;-1.932;2023-06-10T09:51:26;23;23;
49644;PMS5003;36494;50.730;-1.932;2023-06-10T09:53:51;23;23;
49644;PMS5003;36494;50.730;-1.932;2023-06-10T09:56:16;23;22;
49644;PMS5003;36494;50.730;-1.932;2023-06-10T09:58:42;23;21;
49644;PMS5003;36494;50.730;-1.932;2023-06-10T10:01:09;21;21;
49644;PMS5003;36494;50.730;-1.932;2023-06-10T10:03:33;24;23;
49644;PMS5003;36494;50.730;-1.932;2023-06-10T10:05:59;26;25;
49644;PMS5003;36494;50.730;-1.932;2023-06-10T10:08:25;26;23;
49644;PMS5003;36494;50.730;-1.932;2023-06-10T10:10:50;23;23;
49644;PMS5003;36494;50.730;-1.932;2023-06-10T10:13:15;27;26;
49644;PMS5003;36494;50.730;-1.932;2023-06-10T10:15:41;24;24;
49644;PMS5003;36494;50.730;-1.932;2023-06-10T10:18:07;27;26;
49644;PMS5003;36494;50.730;-1.932;2023-06-10T10:20:33;28;27;
49644;PMS5003;36494;50.730;-1.932;2023-06-10T10:22:58;23;22;
49644;PMS5003;36494;50.730;-1.932;2023-06-10T10:25:23;26;26;
49644;PMS5003;36494;50.730;-1.932;2023-06-10T10:27:50;29;29;
49644;PMS5003;36494;50.730;-1.932;2023-06-10T10:30:14;22;20;
49644;PMS5003;36494;50.730;-1.932;2023-06-10T10:32:41;28;27;
49644;PMS5003;36494;50.730;-1.932;2023-06-10T10:35:07;25;24;
49644;PMS5003;36494;50.730;-1.932;2023-06-10T10:37:30;24;23;
49644;PMS5003;36494;50.730;-1.932;2023-06-10T10:39:56;25;23;
49644;PMS5003;36494;50.730;-1.932;2023-06-10T10:42:21;24;24;
49644;PMS5003;36494;50.730;-1.932;2023-06-10T10:44:47;25;25;
49644;PMS5003;36494;50.730;-1.932;2023-06-10T10:47:12;25;24;
49644;PMS5003;36494;50.730;-1.932;2023-06-10T10:49:37;25;25;
49644;PMS5003;36494;50.730;-1.932;2023-06-10T10:52:03;28;27;
49644;PMS5003;36494;50.730;-1.932;2023-06-10T10:54:28;30;28;
49644;PMS5003;36494;50.730;-1.932;2023-06-10T10:59:19;22;22;
49644;PMS5003;36494;50.730;-1.932;2023-06-10T11:01:44;25;25;
49644;PMS5003;36494;50.730;-1.932;2023-06-10T11:04:10;31;29;
49644;PMS5003;36494;50.730;-1.932;2023-06-10T11:06:36;25;24;
49644;PMS5003;36494;50.730;-1.932;2023-06-10T11:09:02;27;25;
49644;PMS5003;36494;50.730;-1.932;2023-06-10T11:11:27;27;27;
49644;PMS5003;36494;50.730;-1.932;2023-06-10T11:13:58;27;26;
49644;PMS5003;36494;50.730;-1.932;2023-06-10T11:16:19;27;26;
49644;PMS5003;36494;50.730;-1.932;2023-06-10T11:18:43;26;26;
49644;PMS5003;36494;50.730;-1.932;2023-06-10T11:21:09;27;27;
49644;PMS5003;36494;50.730;-1.932;2023-06-10T11:23:37;25;25;
49644;PMS5003;36494;50.730;-1.932;2023-06-10T11:28:27;25;24;
49644;PMS5003;36494;50.730;-1.932;2023-06-10T11:30:53;26;25;
49644;PMS5003;36494;50.730;-1.932;2023-06-10T11:33:17;27;26;
49644;PMS5003;36494;50.730;-1.932;2023-06-10T11:35:42;32;29;
49644;PMS5003;36494;50.730;-1.932;2023-06-10T11:38:07;28;27;
49644;PMS5003;36494;50.730;-1.932;2023-06-10T11:40:33;24;22;
49644;PMS5003;36494;50.730;-1.932;2023-06-10T11:42:59;27;26;
49644;PMS5003;36494;50.730;-1.932;2023-06-10T11:45:24;27;27;
49644;PMS5003;36494;50.730;-1.932;2023-06-10T11:47:56;27;27;
49644;PMS5003;36494;50.730;-1.932;2023-06-10T11:50:15;26;25;
49644;PMS5003;36494;50.730;-1.932;2023-06-10T11:52:40;29;28;
49644;PMS5003;36494;50.730;-1.932;2023-06-10T11:55:06;26;25;
49644;PMS5003;36494;50.730;-1.932;2023-06-10T11:57:33;26;26;
49644;PMS5003;36494;50.730;-1.932;2023-06-10T11:59:57;31;30;
49644;PMS5003;36494;50.730;-1.932;2023-06-10T12:02:22;28;26;
49644;PMS5003;36494;50.730;-1.932;2023-06-10T12:04:48;28;26;
49644;PMS5003;36494;50.730;-1.932;2023-06-10T12:07:17;29;29;
49644;PMS5003;36494;50.730;-1.932;2023-06-10T12:09:39;27;26;
49644;PMS5003;36494;50.730;-1.932;2023-06-10T12:12:05;30;29;
49644;PMS5003;36494;50.730;-1.932;2023-06-10T12:16:56;24;23;
49644;PMS5003;36494;50.730;-1.932;2023-06-10T12:19:21;27;26;
49644;PMS5003;36494;50.730;-1.932;2023-06-10T12:21:46;29;28;
49644;PMS5003;36494;50.730;-1.932;2023-06-10T12:24:11;29;29;
49644;PMS5003;36494;50.730;-1.932;2023-06-10T12:26:37;31;30;
49644;PMS5003;36494;50.730;-1.932;2023-06-10T12:31:28;36;33;
49644;PMS5003;36494;50.730;-1.932;2023-06-10T12:36:19;34;33;
49644;PMS5003;36494;50.730;-1.932;2023-06-10T12:38:45;29;29;
49644;PMS5003;36494;50.730;-1.932;2023-06-10T12:41:11;33;32;
49644;PMS5003;36494;50.730;-1.932;2023-06-10T12:43:36;32;32;
49644;PMS5003;36494;50.730;-1.932;2023-06-10T12:48:27;34;31;
49644;PMS5003;36494;50.730;-1.932;2023-06-10T12:50:54;27;25;
49644;PMS5003;36494;50.730;-1.932;2023-06-10T12:53:18;30;29;
49644;PMS5003;36494;50.730;-1.932;2023-06-10T12:55:43;33;32;
49644;PMS5003;36494;50.730;-1.932;2023-06-10T12:58:09;27;26;
49644;PMS5003;36494;50.730;-1.932;2023-06-10T13:00:34;28;26;
49644;PMS5003;36494;50.730;-1.932;2023-06-10T13:02:59;28;27;
49644;PMS5003;36494;50.730;-1.932;2023-06-10T13:05:24;32;29;
49644;PMS5003;36494;50.730;-1.932;2023-06-10T13:07:50;34;32;
49644;PMS5003;36494;50.730;-1.932;2023-06-10T13:10:15;28;27;
49644;PMS5003;36494;50.730;-1.932;2023-06-10T13:12:41;31;28;
49644;PMS5003;36494;50.730;-1.932;2023-06-10T13:15:07;30;29;
49644;PMS5003;36494;50.730;-1.932;2023-06-10T13:17:32;30;30;
49644;PMS5003;36494;50.730;-1.932;2023-06-10T13:19:57;33;31;
49644;PMS5003;36494;50.730;-1.932;2023-06-10T13:22:23;28;27;
49644;PMS5003;36494;50.730;-1.932;2023-06-10T13:24:49;28;27;
49644;PMS5003;36494;50.730;-1.932;2023-06-10T13:27:15;28;27;
49644;PMS5003;36494;50.730;-1.932;2023-06-10T13:29:40;30;30;
49644;PMS5003;36494;50.730;-1.932;2023-06-10T13:32:07;31;31;
49644;PMS5003;36494;50.730;-1.932;2023-06-10T13:34:31;29;28;
49644;PMS5003;36494;50.730;-1.932;2023-06-10T13:36:57;28;27;
49644;PMS5003;36494;50.730;-1.932;2023-06-10T13:39:22;24;24;
49644;PMS5003;36494;50.730;-1.932;2023-06-10T13:41:48;33;31;
49644;PMS5003;36494;50.730;-1.932;2023-06-10T13:44:13;29;27;
49644;PMS5003;36494;50.730;-1.932;2023-06-10T13:46:39;30;29;
49644;PMS5003;36494;50.730;-1.932;2023-06-10T13:49:05;28;28;
49644;PMS5003;36494;50.730;-1.932;2023-06-10T13:51:30;29;28;
49644;PMS5003;36494;50.730;-1.932;2023-06-10T13:53:56;32;31;
49644;PMS5003;36494;50.730;-1.932;2023-06-10T13:56:21;34;32;
49644;PMS5003;36494;50.730;-1.932;2023-06-10T13:58:47;29;29;
49644;PMS5003;36494;50.730;-1.932;2023-06-10T14:01:12;31;31;
49644;PMS5003;36494;50.730;-1.932;2023-06-10T14:03:37;35;33;
49644;PMS5003;36494;50.730;-1.932;2023-06-10T14:06:02;32;32;
49644;PMS5003;36494;50.730;-1.932;2023-06-10T14:08:27;33;32;
49644;PMS5003;36494;50.730;-1.932;2023-06-10T14:10:53;37;36;
49644;PMS5003;36494;50.730;-1.932;2023-06-10T14:13:18;26;26;
49644;PMS5003;36494;50.730;-1.932;2023-06-10T14:15:43;34;32;
49644;PMS5003;36494;50.730;-1.932;2023-06-10T14:18:09;38;36;
49644;PMS5003;36494;50.730;-1.932;2023-06-10T14:20:34;33;32;
49644;PMS5003;36494;50.730;-1.932;2023-06-10T14:22:59;35;34;
49644;PMS5003;36494;50.730;-1.932;2023-06-10T14:25:25;32;31;
49644;PMS5003;36494;50.730;-1.932;2023-06-10T14:27:51;34;34;
49644;PMS5003;36494;50.730;-1.932;2023-06-10T14:30:16;36;34;
49644;PMS5003;36494;50.730;-1.932;2023-06-10T14:32:41;34;33;
49644;PMS5003;36494;50.730;-1.932;2023-06-10T14:35:07;32;31;
49644;PMS5003;36494;50.730;-1.932;2023-06-10T14:37:33;34;32;
49644;PMS5003;36494;50.730;-1.932;2023-06-10T14:39:58;33;32;
49644;PMS5003;36494;50.730;-1.932;2023-06-10T14:42:24;35;34;
49644;PMS5003;36494;50.730;-1.932;2023-06-10T14:44:49;34;34;
49644;PMS5003;36494;50.730;-1.932;2023-06-10T14:47:14;33;33;
49644;PMS5003;36494;50.730;-1.932;2023-06-10T14:49:40;33;33;
49644;PMS5003;36494;50.730;-1.932;2023-06-10T14:52:06;41;40;
49644;PMS5003;36494;50.730;-1.932;2023-06-10T14:54:31;32;32;
49644;PMS5003;36494;50.730;-1.932;2023-06-10T14:56:56;38;36;
49644;PMS5003;36494;50.730;-1.932;2023-06-10T14:59:21;30;30;
49644;PMS5003;36494;50.730;-1.932;2023-06-10T15:01:47;33;31;
49644;PMS5003;36494;50.730;-1.932;2023-06-10T15:04:12;34;33;
49644;PMS5003;36494;50.730;-1.932;2023-06-10T15:06:37;35;34;
49644;PMS5003;36494;50.730;-1.932;2023-06-10T15:09:02;38;35;
49644;PMS5003;36494;50.730;-1.932;2023-06-10T15:11:28;30;29;
49644;PMS5003;36494;50.730;-1.932;2023-06-10T15:13:54;34;33;
49644;PMS5003;36494;50.730;-1.932;2023-06-10T15:16:19;42;41;
49644;PMS5003;36494;50.730;-1.932;2023-06-10T15:18:45;39;38;
49644;PMS5003;36494;50.730;-1.932;2023-06-10T15:21:11;42;41;
49644;PMS5003;36494;50.730;-1.932;2023-06-10T15:23:36;46;44;
49644;PMS5003;36494;50.730;-1.932;2023-06-10T15:26:02;51;51;
49644;PMS5003;36494;50.730;-1.932;2023-06-10T15:28:27;49;46;
49644;PMS5003;36494;50.730;-1.932;2023-06-10T15:30:52;51;50;
49644;PMS5003;36494;50.730;-1.932;2023-06-10T15:33:18;53;51;
49644;PMS5003;36494;50.730;-1.932;2023-06-10T15:35:43;49;47;
49644;PMS5003;36494;50.730;-1.932;2023-06-10T15:38:08;57;56;
49644;PMS5003;36494;50.730;-1.932;2023-06-10T15:40:34;51;50;
49644;PMS5003;36494;50.730;-1.932;2023-06-10T15:43:00;55;52;
49644;PMS5003;36494;50.730;-1.932;2023-06-10T15:45:25;45;45;
49644;PMS5003;36494;50.730;-1.932;2023-06-10T15:47:50;39;37;
49644;PMS5003;36494;50.730;-1.932;2023-06-10T15:50:16;40;39;
49644;PMS5003;36494;50.730;-1.932;2023-06-10T15:52:41;31;31;
49644;PMS5003;36494;50.730;-1.932;2023-06-10T15:55:07;37;36;
49644;PMS5003;36494;50.730;-1.932;2023-06-10T15:57:33;33;32;
49644;PMS5003;36494;50.730;-1.932;2023-06-10T15:59:58;36;35;
49644;PMS5003;36494;50.730;-1.932;2023-06-10T16:02:23;36;35;
49644;PMS5003;36494;50.730;-1.932;2023-06-10T16:04:48;34;34;
49644;PMS5003;36494;50.730;-1.932;2023-06-10T16:07:13;36;35;